L W Nelson — WDC8149 — position and weather

sailwx.info

Track history (hours):
 
Tides and Currents Weather Stations Pressure Air Temp Water Temp Dewpoint Dewpoint Depression Visibility Wind Speed Wind Dir Waves Ship Positions

L W Nelson

Owner: MARIGOLD TUGS INC, MOBILE, AL. More information available from US FCC via Universal Licensing System and Coast Guard Vessel Documentation Center.

Last reported at 2017-Oct-20 04:24 UTC. Time now 2017-Oct-20 07:01 UTC.
Position N 29°51' W 092°20'.

Length 17 m; draft 2.8 m.

Type: Ship (hazmat cat B). MMSI: 367082430.

Date/timePositionNaut miles runAvg speedWind from/ knotsBaromVisibWave heightAir tempDewpointWater temp
2017-Oct-20 04:24N 29°51' W 092°20'2 3.8
2017-Oct-20 03:54N 29°50' W 092°18'1 3.6
2017-Oct-20 03:30N 29°49' W 092°17'2 3.9
2017-Oct-20 03:00N 29°48' W 092°15'2 4.0
2017-Oct-20 02:30N 29°47' W 092°13'1 1.9
2017-Oct-20 02:00N 29°47' W 092°12'1 2.9
2017-Oct-20 01:30N 29°47' W 092°11'2 4.2
2017-Oct-20 01:00N 29°47' W 092°08'2 3.7
2017-Oct-20 00:30N 29°48' W 092°06'2 4.2
2017-Oct-20 00:00N 29°48' W 092°04'2 4.3
2017-Oct-19 23:27N 29°49' W 092°01'57 2.7
2017-Oct-19 02:37N 29°36' W 090°58'5 3.6
2017-Oct-19 01:19N 29°33' W 090°54'2 4.0
2017-Oct-19 00:44N 29°32' W 090°51'1 4.3
2017-Oct-19 00:30N 29°32' W 090°50'2 4.3
2017-Oct-19 00:00N 29°32' W 090°48'2 3.7
2017-Oct-18 23:31N 29°33' W 090°46'2 3.9
2017-Oct-18 23:00N 29°34' W 090°44'1 2.7
2017-Oct-18 22:30N 29°35' W 090°43'2 3.3
2017-Oct-18 22:00N 29°37' W 090°42'2 3.2
2017-Oct-18 21:30N 29°36' W 090°41'2 4.4
2017-Oct-18 21:00N 29°35' W 090°38'2 4.0
2017-Oct-18 20:30N 29°35' W 090°36'2 4.1
2017-Oct-18 20:00N 29°34' W 090°34'2 4.1
2017-Oct-18 19:30N 29°34' W 090°32'2 4.4
2017-Oct-18 19:01N 29°34' W 090°29'2 4.4
2017-Oct-18 18:29N 29°33' W 090°27'  
Track history (hours):
 
Tides and Currents Weather Stations Pressure Air Temp Water Temp Dewpoint Dewpoint Depression Visibility Wind Speed Wind Dir Waves Ship Positions

L W Nelson

Owner: MARIGOLD TUGS INC, MOBILE, AL. More information available from US FCC via Universal Licensing System and Coast Guard Vessel Documentation Center.

Last reported at 2017-Oct-20 04:24 UTC. Time now 2017-Oct-20 07:01 UTC.
Position N 29°51' W 092°20'.

Length 17 m; draft 2.8 m.

Type: Ship (hazmat cat B). MMSI: 367082430.

Date/timePositionNaut miles runAvg speedWind from/ knotsBaromVisibWave heightAir tempDewpointWater temp
2017-Oct-20 04:24N 29°51' W 092°20'2 3.8
2017-Oct-20 03:54N 29°50' W 092°18'1 3.6
2017-Oct-20 03:30N 29°49' W 092°17'2 3.9
2017-Oct-20 03:00N 29°48' W 092°15'2 4.0
2017-Oct-20 02:30N 29°47' W 092°13'1 1.9
2017-Oct-20 02:00N 29°47' W 092°12'1 2.9
2017-Oct-20 01:30N 29°47' W 092°11'2 4.2
2017-Oct-20 01:00N 29°47' W 092°08'2 3.7
2017-Oct-20 00:30N 29°48' W 092°06'2 4.2
2017-Oct-20 00:00N 29°48' W 092°04'2 4.3
2017-Oct-19 23:27N 29°49' W 092°01'57 2.7
2017-Oct-19 02:37N 29°36' W 090°58'5 3.6
2017-Oct-19 01:19N 29°33' W 090°54'2 4.0
2017-Oct-19 00:44N 29°32' W 090°51'1 4.3
2017-Oct-19 00:30N 29°32' W 090°50'2 4.3
2017-Oct-19 00:00N 29°32' W 090°48'2 3.7
2017-Oct-18 23:31N 29°33' W 090°46'2 3.9
2017-Oct-18 23:00N 29°34' W 090°44'1 2.7
2017-Oct-18 22:30N 29°35' W 090°43'2 3.3
2017-Oct-18 22:00N 29°37' W 090°42'2 3.2
2017-Oct-18 21:30N 29°36' W 090°41'2 4.4
2017-Oct-18 21:00N 29°35' W 090°38'2 4.0
2017-Oct-18 20:30N 29°35' W 090°36'2 4.1
2017-Oct-18 20:00N 29°34' W 090°34'2 4.1
2017-Oct-18 19:30N 29°34' W 090°32'2 4.4
2017-Oct-18 19:01N 29°34' W 090°29'2 4.4
2017-Oct-18 18:29N 29°33' W 090°27'  

Dump ship's entire track history